createdAt,value
2022-10-04T00:00:17.574Z,9.667967
2022-10-04T00:01:17.886Z,9.668000
2022-10-04T00:02:17.590Z,9.667999
2022-10-04T00:03:17.577Z,9.668016
2022-10-04T00:04:17.557Z,9.667985
2022-10-04T00:05:17.446Z,9.667948
2022-10-04T00:06:17.435Z,9.667891
2022-10-04T00:07:17.483Z,9.667925
2022-10-04T00:08:17.432Z,9.667994
2022-10-04T00:09:17.480Z,9.667912
2022-10-04T00:10:17.445Z,9.667915
2022-10-04T00:11:17.419Z,9.667948
2022-10-04T00:12:17.458Z,9.667955
2022-10-04T00:13:17.444Z,9.667880
2022-10-04T00:14:17.455Z,9.667955
2022-10-04T00:15:17.420Z,9.667996
2022-10-04T00:16:17.465Z,9.668031
2022-10-04T00:17:17.355Z,9.668023
2022-10-04T00:18:17.556Z,9.668026
2022-10-04T00:19:18.067Z,9.667937
2022-10-04T00:20:17.402Z,9.667962
2022-10-04T00:21:17.414Z,9.667991
2022-10-04T00:22:17.646Z,9.667969
2022-10-04T00:23:17.404Z,9.668007
2022-10-04T00:24:19.167Z,9.668041
2022-10-04T00:25:18.337Z,9.668048
2022-10-04T00:26:17.643Z,9.668023
2022-10-04T00:27:17.242Z,9.667975
2022-10-04T00:28:17.361Z,9.668029
2022-10-04T00:29:17.297Z,9.668050
2022-10-04T00:30:17.800Z,9.668055
2022-10-04T00:31:17.341Z,9.667999
2022-10-04T00:32:17.346Z,9.668054
2022-10-04T00:33:17.250Z,9.668062
2022-10-04T00:34:17.880Z,9.668056
2022-10-04T00:35:17.218Z,9.668043
2022-10-04T00:36:17.208Z,9.668120
2022-10-04T00:37:17.273Z,9.667962
2022-10-04T00:38:17.254Z,9.667951
2022-10-04T00:39:17.237Z,9.668036
2022-10-04T00:40:17.214Z,9.668067
2022-10-04T00:41:17.891Z,9.668059
2022-10-04T00:42:17.243Z,9.668121
2022-10-04T00:43:17.219Z,9.668081
2022-10-04T00:44:17.111Z,9.668071
2022-10-04T00:45:17.179Z,9.667996
2022-10-04T00:46:17.220Z,9.668039
2022-10-04T00:47:17.088Z,9.668055
2022-10-04T00:48:17.170Z,9.668059
2022-10-04T00:49:17.721Z,9.667987
2022-10-04T00:50:17.132Z,9.667974
2022-10-04T00:51:17.749Z,9.667933
2022-10-04T00:52:17.140Z,9.668056
2022-10-04T00:53:17.091Z,9.667999
2022-10-04T00:54:17.820Z,9.668001
2022-10-04T00:55:18.064Z,9.668017
2022-10-04T00:56:17.038Z,9.668013
2022-10-04T00:57:17.117Z,9.668045
2022-10-04T00:58:17.125Z,9.668020
2022-10-04T00:59:17.061Z,9.668053
2022-10-04T01:00:17.039Z,9.668055
2022-10-04T01:01:17.120Z,9.668038
2022-10-04T01:02:17.109Z,9.668017
2022-10-04T01:03:17.578Z,9.668029
2022-10-04T01:04:17.085Z,9.668022
2022-10-04T01:05:17.018Z,9.668085
2022-10-04T01:06:17.026Z,9.668061
2022-10-04T01:07:17.018Z,9.668056
2022-10-04T01:08:17.855Z,9.668025
2022-10-04T01:09:17.025Z,9.668010
2022-10-04T01:10:16.943Z,9.667998
2022-10-04T01:11:16.948Z,9.668034
2022-10-04T01:12:16.871Z,9.668038
2022-10-04T01:13:16.929Z,9.668020
2022-10-04T01:14:16.943Z,9.668007
2022-10-04T01:15:17.030Z,9.668003
2022-10-04T01:16:17.018Z,9.668002
2022-10-04T01:17:16.900Z,9.668004
2022-10-04T01:18:16.933Z,9.667990
2022-10-04T01:19:16.937Z,9.668002
2022-10-04T01:20:16.880Z,9.668067
2022-10-04T01:21:16.894Z,9.668012
2022-10-04T01:22:16.942Z,9.667994
2022-10-04T01:23:17.825Z,9.667960
2022-10-04T01:24:16.857Z,9.667987
2022-10-04T01:25:16.863Z,9.668051
2022-10-04T01:26:17.806Z,9.668081
2022-10-04T01:27:16.778Z,9.668046
2022-10-04T01:28:16.897Z,9.668023
2022-10-04T01:29:16.838Z,9.668008
2022-10-04T01:30:16.805Z,9.668041
2022-10-04T01:31:16.856Z,9.667999
2022-10-04T01:32:16.836Z,9.667948
2022-10-04T01:33:16.805Z,9.668053
2022-10-04T01:34:16.748Z,9.667993
2022-10-04T01:35:16.977Z,9.668005
2022-10-04T01:36:16.775Z,9.667946
2022-10-04T01:37:16.791Z,9.667983
2022-10-04T01:38:16.715Z,9.667981
2022-10-04T01:39:16.754Z,9.667958
2022-10-04T01:40:16.731Z,9.667915
2022-10-04T01:41:16.716Z,9.667983
2022-10-04T01:42:16.770Z,9.667993
2022-10-04T01:43:16.712Z,9.667961
2022-10-04T01:44:16.704Z,9.667993
2022-10-04T02:18:37.158Z,9.667974
2022-10-04T02:24:41.099Z,9.667974
2022-10-04T02:25:05.602Z,9.668049
2022-10-04T02:26:07.077Z,9.667983
2022-10-04T02:27:06.825Z,9.667973
2022-10-04T02:28:05.633Z,9.667969
2022-10-04T02:29:05.047Z,9.667955
2022-10-04T02:30:06.606Z,9.667892
2022-10-04T02:31:05.677Z,9.667960
2022-10-04T02:32:05.021Z,9.667987
2022-10-04T02:33:04.989Z,9.667972
2022-10-04T02:34:04.962Z,9.668010
2022-10-04T02:35:05.014Z,9.668012
2022-10-04T02:36:05.003Z,9.667924
2022-10-04T02:37:05.063Z,9.667945
2022-10-04T02:38:05.582Z,9.667928
2022-10-04T02:39:05.582Z,9.667996
2022-10-04T02:40:04.963Z,9.667971
2022-10-04T02:41:04.962Z,9.667999
2022-10-04T02:42:04.950Z,9.667970
2022-10-04T02:43:05.655Z,9.668015
2022-10-04T02:44:04.872Z,9.668004
2022-10-04T02:45:05.595Z,9.668020
2022-10-04T02:46:05.030Z,9.668011
2022-10-04T02:47:05.579Z,9.667950
2022-10-04T02:48:05.608Z,9.667945
2022-10-04T02:49:05.678Z,9.667882
2022-10-04T02:50:06.889Z,9.667893
2022-10-04T02:51:05.905Z,9.667931
2022-10-04T02:52:04.836Z,9.667928
2022-10-04T02:53:05.580Z,9.667941
2022-10-04T02:54:04.917Z,9.667899
2022-10-04T02:55:05.661Z,9.667974
2022-10-04T02:56:04.852Z,9.667931
2022-10-04T02:57:05.591Z,9.667961
2022-10-04T02:58:05.361Z,9.667938
2022-10-04T02:59:06.583Z,9.667927
2022-10-04T03:00:06.097Z,9.667937
2022-10-04T03:01:09.235Z,9.667927
2022-10-04T03:02:12.115Z,9.667908
2022-10-04T03:03:12.688Z,9.667918
2022-10-04T03:04:13.091Z,9.667925
2022-10-04T03:05:48.086Z,9.667905
2022-10-04T03:06:37.162Z,9.667918
2022-10-04T03:07:20.089Z,9.667974
2022-10-04T03:08:23.607Z,9.668039
2022-10-04T03:09:30.315Z,9.667974
2022-10-04T03:10:27.637Z,9.667986
2022-10-04T03:11:05.588Z,9.667962
2022-10-04T03:12:05.585Z,9.667947
2022-10-04T03:13:05.344Z,9.667928
2022-10-04T03:14:05.584Z,9.667964
2022-10-04T03:15:05.610Z,9.667939
2022-10-04T03:16:05.629Z,9.667916
2022-10-04T03:17:05.315Z,9.667908
2022-10-04T03:18:06.085Z,9.667943
2022-10-04T03:19:04.711Z,9.667968
2022-10-04T03:20:04.663Z,9.667974
2022-10-04T03:21:04.632Z,9.667981
2022-10-04T03:22:05.320Z,9.668003
2022-10-04T03:23:04.635Z,9.668021
2022-10-04T03:24:05.587Z,9.667994
2022-10-04T03:25:04.608Z,9.668015
2022-10-04T03:26:04.634Z,9.668001
2022-10-04T03:27:06.298Z,9.667942
2022-10-04T03:28:04.630Z,9.667962
2022-10-04T03:29:04.574Z,9.667926
2022-10-04T03:30:05.599Z,9.667972
2022-10-04T03:31:04.699Z,9.668000
2022-10-04T03:32:05.211Z,9.668006
2022-10-04T03:33:04.556Z,9.668020
2022-10-04T03:34:04.531Z,9.668037
2022-10-04T03:35:04.504Z,9.668046
2022-10-04T03:36:04.522Z,9.668063
2022-10-04T03:37:04.576Z,9.668048
2022-10-04T03:38:05.087Z,9.668035
2022-10-04T03:39:04.515Z,9.668021
2022-10-04T03:40:04.481Z,9.668025
2022-10-04T03:41:05.163Z,9.668024
2022-10-04T03:42:05.182Z,9.668027
2022-10-04T03:43:06.096Z,9.668027
2022-10-04T03:44:05.231Z,9.668044
2022-10-04T03:45:06.089Z,9.668077
2022-10-04T03:46:05.133Z,9.668049
2022-10-04T03:47:04.399Z,9.668071
2022-10-04T04:04:44.541Z,9.667873
2022-10-04T04:05:43.876Z,9.667996
2022-10-04T04:06:43.932Z,9.668071
2022-10-04T04:07:44.539Z,9.668016
2022-10-04T04:08:43.934Z,9.668052
2022-10-04T04:09:44.533Z,9.668086
2022-10-04T04:10:44.820Z,9.668048
2022-10-04T04:11:45.528Z,9.668077
2022-10-04T04:12:44.540Z,9.668103
2022-10-04T04:13:43.825Z,9.668062
2022-10-04T04:14:43.875Z,9.668105
2022-10-04T04:15:43.853Z,9.668063
2022-10-04T04:16:44.690Z,9.668022
2022-10-04T04:17:44.865Z,9.667983
2022-10-04T04:18:44.529Z,9.668001
2022-10-04T04:19:44.533Z,9.668000
2022-10-04T04:20:44.533Z,9.667994
2022-10-04T04:21:43.954Z,9.668002
2022-10-04T04:22:43.828Z,9.667973
2022-10-04T04:23:44.535Z,9.667981
2022-10-04T04:24:44.807Z,9.668045
2022-10-04T04:25:43.821Z,9.668097
2022-10-04T04:26:44.534Z,9.668107
2022-10-04T04:27:44.763Z,9.668088
2022-10-04T04:28:43.820Z,9.668061
2022-10-04T04:29:45.542Z,9.668026
2022-10-04T04:30:43.839Z,9.668007
2022-10-04T04:31:44.097Z,9.667996
2022-10-04T04:32:44.553Z,9.667999
2022-10-04T04:33:43.679Z,9.667998
2022-10-04T04:34:43.743Z,9.667983
2022-10-04T04:35:44.532Z,9.667987
2022-10-04T04:36:43.735Z,9.667973
2022-10-04T04:37:43.729Z,9.667990
2022-10-04T04:38:43.726Z,9.668025
2022-10-04T04:39:44.607Z,9.667985
2022-10-04T04:40:44.545Z,9.667958
2022-10-04T04:41:49.567Z,9.668012
2022-10-04T04:42:46.539Z,9.668061
2022-10-04T04:43:44.537Z,9.668021
2022-10-04T04:44:45.044Z,9.668120
2022-10-04T04:45:44.588Z,9.668058
2022-10-04T04:46:45.591Z,9.668025
2022-10-04T04:47:43.676Z,9.668036
2022-10-04T04:48:44.536Z,9.668025
2022-10-04T04:49:44.551Z,9.667994
2022-10-04T04:50:43.625Z,9.668037
2022-10-04T04:51:43.846Z,9.668060
2022-10-04T04:52:45.036Z,9.668081
2022-10-04T04:53:43.606Z,9.668068
2022-10-04T04:54:44.398Z,9.668042
2022-10-04T04:56:03.388Z,9.668054
2022-10-04T04:56:45.614Z,9.668053
2022-10-04T04:57:43.700Z,9.668035
2022-10-04T04:58:45.048Z,9.668081
2022-10-04T04:59:44.287Z,9.668068
2022-10-04T05:00:43.617Z,9.668062
2022-10-04T05:01:44.870Z,9.668023
2022-10-04T05:02:43.565Z,9.668027
2022-10-04T05:03:43.546Z,9.668014
2022-10-04T05:04:44.237Z,9.668027
2022-10-04T05:05:45.058Z,9.668038
2022-10-04T05:06:43.555Z,9.668076
2022-10-04T05:07:43.500Z,9.668075
2022-10-04T05:08:44.037Z,9.668057
2022-10-04T05:09:43.487Z,9.668017
2022-10-04T05:10:44.046Z,9.667999
2022-10-04T05:11:43.685Z,9.668065
2022-10-04T05:12:44.539Z,9.667990
2022-10-04T05:13:43.457Z,9.668015
2022-10-04T05:14:44.042Z,9.668083
2022-10-04T05:15:43.393Z,9.668032
2022-10-04T05:16:43.533Z,9.668056
2022-10-04T05:17:46.049Z,9.668071
2022-10-04T05:18:43.355Z,9.668069
2022-10-04T05:19:44.066Z,9.668085
2022-10-04T05:20:44.038Z,9.668073
2022-10-04T05:21:44.464Z,9.668109
2022-10-04T05:22:45.539Z,9.668114
2022-10-04T05:23:45.039Z,9.668077
2022-10-04T05:24:44.564Z,9.668093
2022-10-04T05:25:45.042Z,9.668031
2022-10-04T05:26:46.050Z,9.668040
2022-10-04T05:27:45.045Z,9.668050
2022-10-04T05:28:43.335Z,9.668055
2022-10-04T05:29:44.304Z,9.667981
2022-10-04T05:30:45.043Z,9.668059
2022-10-04T05:31:44.387Z,9.668023
2022-10-04T05:32:44.073Z,9.668056
2022-10-04T05:33:43.245Z,9.667994
2022-10-04T05:34:44.065Z,9.667986
2022-10-04T05:35:43.207Z,9.668060
2022-10-04T05:36:43.251Z,9.668122
2022-10-04T05:37:43.188Z,9.668066
2022-10-04T05:38:44.042Z,9.667948
2022-10-04T05:39:44.042Z,9.668004
2022-10-04T05:40:44.232Z,9.667989
2022-10-04T05:41:43.438Z,9.667982
2022-10-04T05:42:44.044Z,9.668040
2022-10-04T05:43:43.248Z,9.668030
2022-10-04T05:44:44.544Z,9.668023
2022-10-04T05:45:44.080Z,9.667984
2022-10-04T05:46:44.150Z,9.667946
2022-10-04T05:47:44.184Z,9.667965
2022-10-04T05:48:43.194Z,9.668013
2022-10-04T05:49:43.803Z,9.667931
2022-10-04T05:50:44.089Z,9.668023
2022-10-04T05:51:43.311Z,9.668015
2022-10-04T05:52:43.084Z,9.668017
2022-10-04T05:53:43.118Z,9.667984
2022-10-04T05:54:44.047Z,9.667959
2022-10-04T05:55:44.045Z,9.668014
2022-10-04T05:56:44.546Z,9.668015
2022-10-04T05:57:43.039Z,9.667970
2022-10-04T05:58:43.067Z,9.668080
2022-10-04T05:59:43.058Z,9.668081
2022-10-04T06:00:43.205Z,9.668050
2022-10-04T06:01:44.111Z,9.668093
2022-10-04T06:02:44.101Z,9.668088
2022-10-04T06:03:43.027Z,9.668095
2022-10-04T06:04:43.035Z,9.668052
2022-10-04T06:05:43.074Z,9.668049
2022-10-04T06:06:43.550Z,9.668041
2022-10-04T06:07:44.257Z,9.667999
2022-10-04T06:08:43.548Z,9.668030
2022-10-04T06:09:43.080Z,9.668005
2022-10-04T06:11:12.198Z,9.667941
2022-10-04T06:11:43.294Z,9.667959
2022-10-04T06:12:44.769Z,9.667963
2022-10-04T06:13:43.887Z,9.667999
2022-10-04T06:14:43.583Z,9.668083
2022-10-04T06:15:43.596Z,9.668026
2022-10-04T06:16:43.647Z,9.668019
2022-10-04T06:17:43.006Z,9.668040
2022-10-04T06:18:42.956Z,9.667976
2022-10-04T06:19:42.904Z,9.668004
2022-10-04T06:20:42.894Z,9.667986
2022-10-04T06:21:44.154Z,9.667983
2022-10-04T06:22:43.029Z,9.667990
2022-10-04T06:23:43.592Z,9.668008
2022-10-04T06:24:43.591Z,9.667968
2022-10-04T06:25:42.857Z,9.667994
2022-10-04T06:26:45.584Z,9.667925
2022-10-04T06:27:42.873Z,9.667961
2022-10-04T06:28:42.856Z,9.667995
2022-10-04T06:29:42.832Z,9.667979
2022-10-04T06:30:42.863Z,9.667923
2022-10-04T06:31:43.095Z,9.667956
2022-10-04T06:32:43.853Z,9.668008
2022-10-04T06:33:42.889Z,9.668013
2022-10-04T06:34:42.818Z,9.667990
2022-10-04T06:35:42.788Z,9.668009
2022-10-04T06:36:42.763Z,9.667986
2022-10-04T06:37:43.592Z,9.668022
2022-10-04T06:38:42.792Z,9.668049
2022-10-04T06:39:43.594Z,9.668026
2022-10-04T06:40:42.805Z,9.668003
2022-10-04T06:41:43.823Z,9.667978
2022-10-04T06:42:43.589Z,9.667995
2022-10-04T06:43:43.590Z,9.668006
2022-10-04T06:44:46.283Z,9.668036
2022-10-04T06:45:43.829Z,9.668043
2022-10-04T06:46:42.739Z,9.668054
2022-10-04T06:47:42.744Z,9.668021
2022-10-04T06:48:44.088Z,9.668029
2022-10-04T06:49:43.593Z,9.668022
2022-10-04T06:50:43.598Z,9.668036
2022-10-04T06:51:43.953Z,9.668034
2022-10-04T06:52:44.124Z,9.668031
2022-10-04T06:53:43.319Z,9.668086
2022-10-04T06:54:42.787Z,9.668023
2022-10-04T06:55:43.269Z,9.668036
2022-10-04T06:56:42.685Z,9.667989
2022-10-04T06:57:42.689Z,9.668019
2022-10-04T06:58:42.694Z,9.668016
2022-10-04T06:59:42.652Z,9.668010
2022-10-04T07:00:42.663Z,9.668025
2022-10-04T07:01:43.106Z,9.667979
2022-10-04T07:02:42.668Z,9.667978
2022-10-04T07:03:42.571Z,9.667963
2022-10-04T07:05:06.942Z,9.668010
2022-10-04T07:05:44.634Z,9.668010
2022-10-04T07:06:42.599Z,9.667963
2022-10-04T07:07:42.670Z,9.667971
2022-10-04T07:08:43.094Z,9.668033
2022-10-04T07:09:43.092Z,9.668017
2022-10-04T07:10:42.524Z,9.667993
2022-10-04T07:11:42.808Z,9.668021
2022-10-04T07:12:43.093Z,9.667995
2022-10-04T07:13:43.173Z,9.668023
2022-10-04T07:14:42.475Z,9.668041
2022-10-04T07:15:42.611Z,9.667996
2022-10-04T07:16:44.096Z,9.668040
2022-10-04T07:17:42.510Z,9.667994
2022-10-04T07:18:42.485Z,9.667978
2022-10-04T07:19:42.445Z,9.667998
2022-10-04T07:20:42.456Z,9.667974
2022-10-04T07:21:43.827Z,9.667990
2022-10-04T07:22:42.441Z,9.667990
2022-10-04T07:23:43.102Z,9.667917
2022-10-04T07:24:43.324Z,9.667922
2022-10-04T07:25:42.454Z,9.667897
2022-10-04T07:26:42.414Z,9.667892
2022-10-04T07:27:42.420Z,9.667848
2022-10-04T07:28:42.390Z,9.667920
2022-10-04T07:29:43.369Z,9.667907
2022-10-04T07:30:43.444Z,9.667974
2022-10-04T07:31:43.349Z,9.667982
2022-10-04T07:32:43.403Z,9.667997
2022-10-04T07:33:43.375Z,9.668015
2022-10-04T07:34:42.308Z,9.668017
2022-10-04T07:35:43.346Z,9.667876
2022-10-04T07:36:42.286Z,9.667913
2022-10-04T07:37:43.099Z,9.667893
2022-10-04T07:38:42.290Z,9.667797
2022-10-04T07:39:42.321Z,9.667907
2022-10-04T07:40:42.367Z,9.667917
2022-10-04T07:41:42.554Z,9.667938
2022-10-04T07:42:42.309Z,9.667990
2022-10-04T07:43:42.283Z,9.668004
2022-10-04T07:44:42.249Z,9.668011
2022-10-04T07:45:42.348Z,9.668062
2022-10-04T07:46:43.260Z,9.667978
2022-10-04T07:47:42.863Z,9.667971
2022-10-04T07:48:42.232Z,9.668016
2022-10-04T07:49:42.193Z,9.667962
2022-10-04T07:50:43.098Z,9.668001
2022-10-04T07:51:43.057Z,9.668003
2022-10-04T07:52:42.202Z,9.667992
2022-10-04T07:53:42.215Z,9.667948
2022-10-04T07:54:42.162Z,9.668007
2022-10-04T07:55:42.306Z,9.668016
2022-10-04T07:56:42.203Z,9.667967
2022-10-04T07:57:42.181Z,9.668018
2022-10-04T07:58:45.493Z,9.668007
2022-10-04T07:59:44.110Z,9.668009
2022-10-04T08:00:42.140Z,9.667982
2022-10-04T08:01:42.560Z,9.668006
2022-10-04T08:02:42.287Z,9.668019
2022-10-04T08:03:42.147Z,9.668010
2022-10-04T08:04:42.115Z,9.668033
2022-10-04T08:05:42.136Z,9.668014
2022-10-04T08:06:42.342Z,9.667960
2022-10-04T08:07:42.603Z,9.668028
2022-10-04T08:08:42.174Z,9.668003
2022-10-04T08:09:42.084Z,9.668015
2022-10-04T08:10:42.602Z,9.668015
2022-10-04T08:11:42.832Z,9.667990
2022-10-04T08:12:44.107Z,9.667987
2022-10-04T08:13:42.058Z,9.668024
2022-10-04T08:14:42.118Z,9.668066
2022-10-04T08:15:43.067Z,9.668073
2022-10-04T08:16:42.326Z,9.668036
2022-10-04T08:17:41.951Z,9.668052
2022-10-04T08:18:42.605Z,9.668085
2022-10-04T08:19:42.840Z,9.668053
2022-10-04T08:20:42.618Z,9.667989
2022-10-04T08:21:42.015Z,9.668025
2022-10-04T08:22:41.952Z,9.668000
2022-10-04T08:24:16.212Z,9.668000
2022-10-04T08:24:42.826Z,9.668063
2022-10-04T08:25:41.917Z,9.667970
2022-10-04T08:26:42.171Z,9.667988
2022-10-04T08:27:41.882Z,9.667998
2022-10-04T08:28:41.849Z,9.668015
2022-10-04T08:29:41.854Z,9.668020
2022-10-04T08:30:41.923Z,9.668046
2022-10-04T08:31:41.884Z,9.668046
2022-10-04T08:32:41.836Z,9.668042
2022-10-04T08:33:41.864Z,9.668033
2022-10-04T08:34:41.837Z,9.668054
2022-10-04T08:35:41.859Z,9.668077
2022-10-04T08:36:42.157Z,9.668038
2022-10-04T08:37:41.830Z,9.667975
2022-10-04T08:38:41.821Z,9.667961
2022-10-04T08:39:41.786Z,9.667914
2022-10-04T08:40:41.770Z,9.667971
2022-10-04T08:41:41.798Z,9.667906
2022-10-04T08:42:41.807Z,9.667953
2022-10-04T08:43:41.764Z,9.667963
2022-10-04T08:44:41.740Z,9.667968
2022-10-04T08:45:41.728Z,9.667997
2022-10-04T08:46:42.184Z,9.667944
2022-10-04T08:47:41.769Z,9.667978
2022-10-04T08:48:42.650Z,9.667994
2022-10-04T08:49:41.730Z,9.667958
2022-10-04T08:50:42.704Z,9.667963
2022-10-04T08:51:41.736Z,9.667908
2022-10-04T08:52:41.706Z,9.667957
2022-10-04T08:53:41.699Z,9.667911
2022-10-04T08:54:41.688Z,9.667953
2022-10-04T08:55:41.671Z,9.667975
2022-10-04T08:56:41.979Z,9.667979
2022-10-04T08:57:41.662Z,9.667969
2022-10-04T08:58:41.647Z,9.667974
2022-10-04T08:59:41.655Z,9.667895
2022-10-04T09:00:41.677Z,9.667912
2022-10-04T09:01:41.708Z,9.667963
2022-10-04T09:02:41.758Z,9.667916
2022-10-04T09:03:41.632Z,9.667963
2022-10-04T09:04:41.599Z,9.667909
2022-10-04T09:05:42.291Z,9.667948
2022-10-04T09:06:41.962Z,9.667977
2022-10-04T09:07:41.594Z,9.667955
2022-10-04T09:08:41.612Z,9.667938
2022-10-04T09:09:41.585Z,9.667958
2022-10-04T09:10:41.604Z,9.667984
2022-10-04T09:11:41.639Z,9.667944
2022-10-04T09:12:41.618Z,9.667960
2022-10-04T09:13:41.548Z,9.667918
2022-10-04T09:14:41.552Z,9.667970
2022-10-04T09:15:41.573Z,9.667943
2022-10-04T09:16:41.833Z,9.667913
2022-10-04T09:17:41.550Z,9.667986
2022-10-04T09:18:41.488Z,9.667990
2022-10-04T09:19:41.500Z,9.667943
2022-10-04T09:20:41.502Z,9.667961
2022-10-04T09:21:41.496Z,9.667926
2022-10-04T09:22:41.473Z,9.667919
2022-10-04T09:23:41.489Z,9.667980
2022-10-04T09:24:41.494Z,9.667942
2022-10-04T09:25:41.504Z,9.668006
2022-10-04T09:26:42.751Z,9.668032
2022-10-04T09:27:56.041Z,9.667941
2022-10-04T09:28:43.506Z,9.667991
2022-10-04T09:29:41.431Z,9.667936
2022-10-04T09:30:41.470Z,9.667892
2022-10-04T09:31:41.445Z,9.667897
2022-10-04T09:32:41.493Z,9.667948
2022-10-04T09:33:41.425Z,9.667915
2022-10-04T09:34:41.418Z,9.667916
2022-10-04T09:35:41.532Z,9.667942
2022-10-04T09:36:41.770Z,9.668007
2022-10-04T09:37:41.352Z,9.668055
2022-10-04T09:38:41.420Z,9.668057
2022-10-04T09:39:41.406Z,9.667997
2022-10-04T09:40:45.326Z,9.668008
2022-10-04T09:41:43.343Z,9.667917
2022-10-04T09:42:41.392Z,9.667953
2022-10-04T09:43:41.348Z,9.667981
2022-10-04T09:44:41.359Z,9.667980
2022-10-04T09:45:41.347Z,9.667946
2022-10-04T09:46:42.372Z,9.668013
2022-10-04T09:47:41.369Z,9.667978
2022-10-04T09:48:41.289Z,9.667988
2022-10-04T09:49:41.289Z,9.668028
2022-10-04T09:50:41.270Z,9.668026
2022-10-04T09:51:41.302Z,9.667951
2022-10-04T09:52:41.285Z,9.667932
2022-10-04T09:53:41.277Z,9.667970
2022-10-04T09:54:44.452Z,9.667895
2022-10-04T09:55:42.290Z,9.668006
2022-10-04T09:56:41.599Z,9.667971
2022-10-04T09:57:47.680Z,9.667986
2022-10-04T09:58:41.233Z,9.667929
2022-10-04T09:59:41.211Z,9.667945
2022-10-04T10:00:41.277Z,9.667977
2022-10-04T10:01:41.246Z,9.667996
2022-10-04T10:02:41.240Z,9.667979
2022-10-04T10:03:41.905Z,9.667956
2022-10-04T10:04:41.199Z,9.668029
2022-10-04T10:05:42.172Z,9.667989
2022-10-04T10:06:41.588Z,9.667963
2022-10-04T10:07:41.242Z,9.667970
2022-10-04T10:08:41.874Z,9.667934
2022-10-04T10:09:41.216Z,9.667980
2022-10-04T10:10:41.163Z,9.667990
2022-10-04T10:11:41.413Z,9.667970
2022-10-04T10:12:41.119Z,9.668048
2022-10-04T10:13:41.137Z,9.668011
2022-10-04T10:14:41.149Z,9.667994
2022-10-04T10:15:41.202Z,9.667964
2022-10-04T10:16:41.506Z,9.667980
2022-10-04T10:17:41.675Z,9.667996
2022-10-04T10:18:41.084Z,9.667965
2022-10-04T10:19:41.090Z,9.667979
2022-10-04T10:20:41.086Z,9.667990
2022-10-04T10:21:41.336Z,9.667991
2022-10-04T10:22:41.088Z,9.667965
2022-10-04T10:23:41.035Z,9.667957
2022-10-04T10:24:42.677Z,9.667949
2022-10-04T10:25:41.023Z,9.667956
2022-10-04T10:26:41.425Z,9.667951
2022-10-04T10:27:41.678Z,9.667985
2022-10-04T10:28:41.019Z,9.668002
2022-10-04T10:29:41.922Z,9.667972
2022-10-04T10:30:40.993Z,9.667977
2022-10-04T10:31:43.557Z,9.667904
2022-10-04T10:32:43.028Z,9.667953
2022-10-04T10:33:40.982Z,9.667972
2022-10-04T10:34:41.780Z,9.667980
2022-10-04T10:35:40.974Z,9.667972
2022-10-04T10:36:42.218Z,9.667965
2022-10-04T10:37:41.913Z,9.668034
2022-10-04T10:38:41.683Z,9.668064
2022-10-04T10:39:41.682Z,9.668057
2022-10-04T10:40:40.939Z,9.668041
2022-10-04T10:41:40.984Z,9.667994
2022-10-04T10:42:40.867Z,9.667963
2022-10-04T10:43:41.684Z,9.668000
2022-10-04T10:44:40.920Z,9.668001
2022-10-04T10:45:40.977Z,9.668015
2022-10-04T10:46:40.871Z,9.667964
2022-10-04T10:47:41.848Z,9.667980
2022-10-04T10:48:40.904Z,9.668019
2022-10-04T10:49:40.892Z,9.668051
2022-10-04T10:50:41.813Z,9.668000
2022-10-04T10:51:40.848Z,9.668020
2022-10-04T10:52:41.908Z,9.668014
2022-10-04T10:53:43.696Z,9.668019
2022-10-04T10:54:40.847Z,9.668005
2022-10-04T10:55:41.757Z,9.667991
2022-10-04T10:56:41.495Z,9.668061
2022-10-04T10:57:41.299Z,9.668049
2022-10-04T10:58:40.851Z,9.667988
2022-10-04T10:59:41.691Z,9.667990
2022-10-04T11:00:40.740Z,9.668007
2022-10-04T11:01:40.880Z,9.667999
2022-10-04T11:02:50.036Z,9.667974
2022-10-04T11:03:42.899Z,9.667967
2022-10-04T11:04:40.719Z,9.667966
2022-10-04T11:05:41.698Z,9.667940
2022-10-04T11:06:41.200Z,9.667968
2022-10-04T11:07:40.744Z,9.667930
2022-10-04T11:08:40.732Z,9.667941
2022-10-04T11:09:40.723Z,9.667965
2022-10-04T11:10:40.748Z,9.667977
2022-10-04T11:11:40.720Z,9.667979
2022-10-04T11:12:40.710Z,9.667959
2022-10-04T11:13:40.680Z,9.668015
2022-10-04T11:14:40.691Z,9.667977
2022-10-04T11:15:40.786Z,9.667941
2022-10-04T11:16:41.195Z,9.667963
2022-10-04T11:17:40.658Z,9.667979
2022-10-04T11:18:40.662Z,9.667950
2022-10-04T11:19:40.648Z,9.667976
2022-10-04T11:20:40.674Z,9.667924
2022-10-04T11:21:40.633Z,9.667952
2022-10-04T11:22:40.628Z,9.667961
2022-10-04T11:23:40.648Z,9.667990
2022-10-04T11:24:40.600Z,9.667982
2022-10-04T11:25:40.564Z,9.667953
2022-10-04T11:26:40.631Z,9.667959
2022-10-04T11:27:40.618Z,9.667974
2022-10-04T11:28:40.621Z,9.667993
2022-10-04T11:29:40.564Z,9.668009
2022-10-04T11:30:40.549Z,9.668037
2022-10-04T11:31:40.627Z,9.668020
2022-10-04T11:32:40.574Z,9.668022
2022-10-04T11:33:40.526Z,9.668021
2022-10-04T11:34:41.202Z,9.668044
2022-10-04T11:35:40.508Z,9.668015
2022-10-04T11:36:40.559Z,9.668020
2022-10-04T11:37:40.532Z,9.668032
2022-10-04T11:38:41.207Z,9.668024
2022-10-04T11:39:44.391Z,9.667993
2022-10-04T11:40:41.482Z,9.667974
2022-10-04T11:41:40.493Z,9.668009
2022-10-04T11:42:40.457Z,9.667985
2022-10-04T11:43:40.445Z,9.668026
2022-10-04T11:44:40.473Z,9.668012
2022-10-04T11:45:40.489Z,9.667994
2022-10-04T11:46:42.569Z,9.668022
2022-10-04T11:47:40.441Z,9.668024
2022-10-04T11:48:40.406Z,9.667993
2022-10-04T11:49:41.210Z,9.667984
2022-10-04T11:50:40.447Z,9.668025
2022-10-04T11:51:40.408Z,9.667994
2022-10-04T11:52:40.453Z,9.667993
2022-10-04T11:53:40.341Z,9.668000
2022-10-04T11:54:40.432Z,9.668025
2022-10-04T11:55:40.383Z,9.668013
2022-10-04T11:56:40.350Z,9.667972
2022-10-04T11:57:40.321Z,9.667954
2022-10-04T11:58:41.232Z,9.667997
2022-10-04T11:59:41.211Z,9.667982
2022-10-04T12:00:41.211Z,9.667959
2022-10-04T12:01:41.211Z,9.667928
2022-10-04T12:02:40.328Z,9.668054
2022-10-04T12:03:40.327Z,9.668016
2022-10-04T12:04:41.267Z,9.668021
2022-10-04T12:05:40.257Z,9.668001
2022-10-04T12:06:40.294Z,9.668016
2022-10-04T12:07:40.292Z,9.668010
2022-10-04T12:08:40.325Z,9.667994
2022-10-04T12:09:40.349Z,9.667988
2022-10-04T12:10:40.347Z,9.668007
2022-10-04T12:11:40.230Z,9.668003
2022-10-04T12:12:40.207Z,9.668043
2022-10-04T12:13:40.725Z,9.668046
2022-10-04T12:14:40.306Z,9.668001
2022-10-04T12:15:40.229Z,9.667982
2022-10-04T12:16:40.285Z,9.667993
2022-10-04T12:17:40.211Z,9.667995
2022-10-04T12:18:40.718Z,9.667965
2022-10-04T12:19:40.245Z,9.667997
2022-10-04T12:20:40.221Z,9.667994
2022-10-04T12:21:40.967Z,9.668048
2022-10-04T12:22:40.727Z,9.668031
2022-10-04T12:23:40.242Z,9.668050
2022-10-04T12:24:40.168Z,9.668040
2022-10-04T12:25:40.150Z,9.668029
2022-10-04T12:26:40.171Z,9.668016
2022-10-04T12:27:40.200Z,9.668017
2022-10-04T12:28:40.798Z,9.668033
2022-10-04T12:29:41.108Z,9.667988
2022-10-04T12:30:40.161Z,9.668036
2022-10-04T12:31:40.758Z,9.667992
2022-10-04T12:32:40.085Z,9.667991
2022-10-04T12:33:40.064Z,9.667978
2022-10-04T12:34:40.722Z,9.667998
2022-10-04T12:35:40.104Z,9.668001
2022-10-04T12:36:40.022Z,9.668045
2022-10-04T12:37:40.134Z,9.668028
2022-10-04T12:38:40.724Z,9.668012